Time;durP1;ratioP1;P1;durP2;ratioP2;P2;SDS_P1;SDS_P2;PMS_P1;PMS_P2;Temp;Humidity;BMP_temperature;BMP_pressure;BME280_temperature;BME280_humidity;BME280_pressure;Samples;Min_cycle;Max_cycle;Signal;HPM_P1;HPM_P2
2022/07/09 00:00:06;;;;;;;5.03;2.80;;;19.30;1.00;;;;;;5089771;28;20052;-80
2022/07/09 00:02:31;;;;;;;5.70;3.17;;;19.40;1.00;;;;;;5090932;28;20035;-79
2022/07/09 00:04:57;;;;;;;5.20;3.10;;;19.40;1.00;;;;;;5089563;28;20377;-80
2022/07/09 00:07:23;;;;;;;4.80;2.95;;;19.20;1.00;;;;;;5093517;28;20066;-80
2022/07/09 00:09:48;;;;;;;4.22;3.10;;;19.20;1.00;;;;;;5093389;28;20157;-80
2022/07/09 00:12:14;;;;;;;4.65;2.92;;;19.10;1.00;;;;;;5093137;28;20666;-80
2022/07/09 00:14:39;;;;;;;3.78;2.92;;;19.10;1.00;;;;;;5094047;28;20114;-80
2022/07/09 00:17:05;;;;;;;5.30;3.15;;;19.10;1.00;;;;;;5093411;28;20028;-80
2022/07/09 00:19:31;;;;;;;4.97;3.10;;;18.90;1.00;;;;;;5093193;28;20042;-80
2022/07/09 00:21:56;;;;;;;5.75;2.90;;;18.80;1.00;;;;;;5093584;28;20089;-80
2022/07/09 00:24:22;;;;;;;6.50;3.53;;;18.90;1.00;;;;;;5093348;28;20024;-80
2022/07/09 00:26:48;;;;;;;3.85;2.70;;;19.00;1.00;;;;;;5092845;28;20039;-80
2022/07/09 00:29:13;;;;;;;4.07;2.75;;;18.80;1.00;;;;;;5095015;28;20040;-80
2022/07/09 00:31:39;;;;;;;12.70;3.55;;;18.70;1.00;;;;;;5093047;28;20510;-80
2022/07/09 00:34:04;;;;;;;3.78;2.80;;;18.50;1.00;;;;;;5092738;28;20039;-80
2022/07/09 00:36:30;;;;;;;6.55;3.10;;;18.70;1.00;;;;;;5093402;28;20063;-80
2022/07/09 00:38:56;;;;;;;7.57;3.38;;;18.70;1.00;;;;;;5093012;28;20052;-80
2022/07/09 00:41:21;;;;;;;6.90;3.40;;;18.70;1.00;;;;;;5094588;28;20095;-79
2022/07/09 00:43:48;;;;;;;4.88;3.30;;;18.60;1.00;;;;;;5093087;28;20059;-79
2022/07/09 00:46:15;;;;;;;4.30;3.10;;;18.70;1.00;;;;;;5092543;28;20516;-79
2022/07/09 00:48:40;;;;;;;5.97;3.05;;;18.60;1.00;;;;;;5092531;28;20374;-79
2022/07/09 00:51:07;;;;;;;5.28;3.33;;;18.50;1.00;;;;;;5092686;28;20031;-80
2022/07/09 00:53:33;;;;;;;5.82;3.30;;;18.30;1.00;;;;;;5093555;28;20032;-79
2022/07/09 00:56:00;;;;;;;4.88;3.67;;;18.30;1.00;;;;;;5091975;28;20024;-80
2022/07/09 00:58:27;;;;;;;4.82;3.22;;;18.30;1.00;;;;;;5092533;28;20028;-79
2022/07/09 01:00:54;;;;;;;6.18;3.25;;;18.30;1.00;;;;;;5092194;28;20020;-80
2022/07/09 01:03:20;;;;;;;4.68;3.30;;;18.20;1.00;;;;;;5092355;28;20043;-79
2022/07/09 01:05:46;;;;;;;4.43;3.35;;;18.10;1.00;;;;;;5092743;28;20033;-79
2022/07/09 01:08:12;;;;;;;5.63;3.55;;;18.20;1.00;;;;;;5094357;28;20032;-80
2022/07/09 01:10:38;;;;;;;6.72;3.28;;;18.00;1.00;;;;;;5091848;28;20024;-79
2022/07/09 01:13:05;;;;;;;4.90;3.50;;;18.00;1.00;;;;;;5092130;28;20382;-80
2022/07/09 01:15:31;;;;;;;5.25;3.30;;;18.00;1.00;;;;;;5092119;28;20392;-79
2022/07/09 01:17:58;;;;;;;5.38;3.47;;;17.90;1.00;;;;;;5091861;28;20028;-80
2022/07/09 01:20:31;;;;;;;7.93;3.90;;;17.90;1.00;;;;;;5094384;28;20499;-80
2022/07/09 01:22:58;;;;;;;5.55;3.72;;;17.90;1.00;;;;;;5092712;28;20040;-80
2022/07/09 01:25:41;;;;;;;6.65;3.53;;;17.80;1.00;;;;;;5091620;28;20024;-79
2022/07/09 01:28:08;;;;;;;6.20;3.35;;;17.60;1.00;;;;;;5091560;28;20044;-80
2022/07/09 01:30:36;;;;;;;5.25;3.50;;;17.60;1.00;;;;;;5091967;28;20104;-80
2022/07/09 01:33:02;;;;;;;5.30;3.50;;;17.60;1.00;;;;;;5090401;28;20082;-80
2022/07/09 01:35:27;;;;;;;5.45;3.47;;;17.60;1.00;;;;;;5093669;28;20031;-79
2022/07/09 01:37:53;;;;;;;7.15;3.28;;;17.60;1.00;;;;;;5090948;28;20103;-80
2022/07/09 01:40:20;;;;;;;4.75;3.55;;;17.80;1.00;;;;;;5091211;28;20110;-79
2022/07/09 01:42:47;;;;;;;7.60;3.55;;;17.50;1.00;;;;;;5091567;28;20088;-80
2022/07/09 01:45:14;;;;;;;5.57;3.45;;;17.50;1.00;;;;;;5092051;28;20030;-79
2022/07/09 01:47:39;;;;;;;5.28;3.40;;;17.40;1.00;;;;;;5091660;28;20028;-79
2022/07/09 01:50:06;;;;;;;7.10;3.47;;;17.40;1.00;;;;;;5091318;28;20401;-79
2022/07/09 01:52:32;;;;;;;4.22;3.33;;;17.50;1.00;;;;;;5090100;28;20036;-79
2022/07/09 01:54:57;;;;;;;4.07;3.30;;;17.40;1.00;;;;;;5091265;28;20035;-79
2022/07/09 01:57:23;;;;;;;4.05;3.33;;;17.40;1.00;;;;;;5091248;28;20488;-79
2022/07/09 01:59:49;;;;;;;3.80;3.40;;;17.30;1.00;;;;;;5091357;28;20058;-79
2022/07/09 02:02:14;;;;;;;4.68;3.40;;;17.40;1.00;;;;;;5093366;28;20030;-79
2022/07/09 02:04:40;;;;;;;6.32;3.33;;;17.30;1.00;;;;;;5091095;28;20020;-79
2022/07/09 02:07:05;;;;;;;3.72;3.30;;;17.30;1.00;;;;;;5091361;28;20028;-80
2022/07/09 02:09:31;;;;;;;5.47;3.63;;;17.20;1.00;;;;;;5090782;28;20051;-80
2022/07/09 02:11:57;;;;;;;6.13;3.72;;;17.30;1.00;;;;;;5089713;28;20028;-79
2022/07/09 02:14:22;;;;;;;4.10;3.70;;;17.40;1.00;;;;;;5093144;28;20492;-79
2022/07/09 02:16:48;;;;;;;5.78;3.70;;;17.10;1.00;;;;;;5090804;28;20032;-79
2022/07/09 02:19:14;;;;;;;4.57;3.60;;;17.10;1.00;;;;;;5090924;28;20024;-79
2022/07/09 02:21:40;;;;;;;5.82;3.50;;;16.90;1.00;;;;;;5090789;28;20397;-79
2022/07/09 02:24:06;;;;;;;5.25;3.42;;;17.00;1.00;;;;;;5090501;28;20024;-79
2022/07/09 02:26:32;;;;;;;5.22;3.53;;;17.00;1.00;;;;;;5092523;28;20028;-79
2022/07/09 02:28:58;;;;;;;4.80;3.85;;;16.90;1.00;;;;;;5090912;28;20093;-79
2022/07/09 02:31:25;;;;;;;5.55;3.80;;;16.80;1.00;;;;;;5089281;28;20100;-79
2022/07/09 02:33:51;;;;;;;5.38;3.83;;;16.90;1.00;;;;;;5090609;28;20032;-79
2022/07/09 02:36:17;;;;;;;4.63;3.47;;;16.90;1.00;;;;;;5090873;28;20431;-79
2022/07/09 02:38:43;;;;;;;6.00;3.63;;;16.80;1.00;;;;;;5089853;28;20023;-80
2022/07/09 02:41:08;;;;;;;5.05;3.30;;;16.90;1.00;;;;;;5092526;28;20027;-79
2022/07/09 02:43:34;;;;;;;5.13;3.60;;;17.00;1.00;;;;;;5090509;28;20055;-79
2022/07/09 02:46:00;;;;;;;6.45;3.55;;;16.90;1.00;;;;;;5090803;28;20043;-80
2022/07/09 02:48:26;;;;;;;4.88;3.72;;;16.80;1.00;;;;;;5090413;28;20488;-79
2022/07/09 02:50:53;;;;;;;4.93;3.50;;;16.90;1.00;;;;;;5089365;28;20031;-79
2022/07/09 02:53:19;;;;;;;5.80;3.72;;;16.80;1.00;;;;;;5091899;28;20513;-81
2022/07/09 02:55:45;;;;;;;4.78;3.90;;;16.70;1.00;;;;;;5090456;28;20135;-80
2022/07/09 02:58:11;;;;;;;6.40;4.00;;;16.70;1.00;;;;;;5089881;28;20102;-80
2022/07/09 03:00:39;;;;;;;5.82;3.58;;;16.70;1.00;;;;;;5090159;28;20500;-79
2022/07/09 03:03:05;;;;;;;7.55;4.18;;;16.60;1.00;;;;;;5090589;28;20106;-80
2022/07/09 03:05:31;;;;;;;5.60;3.63;;;16.60;1.00;;;;;;5091026;28;20425;-79
2022/07/09 03:07:56;;;;;;;5.75;3.90;;;16.50;1.00;;;;;;5090931;28;20111;-79
2022/07/09 03:10:22;;;;;;;7.22;3.90;;;16.40;1.00;;;;;;5090260;28;20488;-79
2022/07/09 03:12:48;;;;;;;5.28;3.88;;;16.20;1.00;;;;;;5089698;28;20036;-80
2022/07/09 03:15:16;;;;;;;5.15;3.67;;;16.60;1.00;;;;;;5090166;28;20032;-79
2022/07/09 03:17:42;;;;;;;4.70;3.60;;;16.50;1.00;;;;;;5090064;28;20538;-79
2022/07/09 03:20:08;;;;;;;5.53;4.00;;;16.50;1.00;;;;;;5091779;28;20354;-79
2022/07/09 03:22:35;;;;;;;5.40;3.72;;;16.40;1.00;;;;;;5090141;28;20028;-79
2022/07/09 03:25:00;;;;;;;5.68;3.67;;;16.40;1.00;;;;;;5090185;28;20108;-79
2022/07/09 03:27:26;;;;;;;6.90;3.85;;;16.30;1.00;;;;;;5089894;28;20290;-79
2022/07/09 03:29:52;;;;;;;7.20;4.20;;;16.20;1.00;;;;;;5088865;28;20056;-79
2022/07/09 03:32:18;;;;;;;5.18;3.90;;;16.10;1.00;;;;;;5091642;28;20016;-79
2022/07/09 03:34:43;;;;;;;5.47;4.03;;;16.20;1.00;;;;;;5089359;28;20036;-79
2022/07/09 03:37:09;;;;;;;6.10;4.30;;;16.20;1.00;;;;;;5089954;28;20056;-80
2022/07/09 03:39:35;;;;;;;5.47;3.80;;;16.20;1.00;;;;;;5089707;28;20050;-80
2022/07/09 03:42:01;;;;;;;7.45;4.22;;;16.20;1.00;;;;;;5093571;28;20514;-79
2022/07/09 03:44:26;;;;;;;5.22;3.90;;;16.20;1.00;;;;;;5095592;28;20089;-79
2022/07/09 03:46:52;;;;;;;5.47;3.30;;;16.10;1.00;;;;;;5094573;28;20140;-79
2022/07/09 03:49:18;;;;;;;5.13;3.80;;;16.20;1.00;;;;;;5093029;28;20029;-79
2022/07/09 03:51:44;;;;;;;6.47;4.20;;;16.20;1.00;;;;;;5093610;28;20114;-80
2022/07/09 03:54:10;;;;;;;5.47;3.85;;;16.20;1.00;;;;;;5093631;28;20081;-79
2022/07/09 03:56:36;;;;;;;5.95;3.95;;;16.10;1.00;;;;;;5094391;28;20535;-79
2022/07/09 03:59:02;;;;;;;4.47;4.07;;;16.00;1.00;;;;;;5095100;28;20032;-79
2022/07/09 04:01:28;;;;;;;4.00;3.60;;;15.80;1.00;;;;;;5093632;28;20028;-82
2022/07/09 04:03:53;;;;;;;4.30;3.90;;;16.00;1.00;;;;;;5093138;28;20039;-82
2022/07/09 04:06:20;;;;;;;6.30;3.97;;;15.90;1.00;;;;;;5093667;28;20039;-81
2022/07/09 04:08:46;;;;;;;5.15;4.28;;;15.90;1.00;;;;;;5093637;28;20035;-81
2022/07/09 04:11:11;;;;;;;6.28;3.90;;;16.00;1.00;;;;;;5094415;28;20028;-81
2022/07/09 04:13:37;;;;;;;5.30;4.07;;;16.00;1.00;;;;;;5091991;28;20054;-82
2022/07/09 04:16:03;;;;;;;5.35;4.22;;;15.90;1.00;;;;;;5093128;28;20550;-81
2022/07/09 04:18:29;;;;;;;5.40;4.28;;;15.90;1.00;;;;;;5092860;28;20111;-82
2022/07/09 04:20:56;;;;;;;4.78;3.90;;;15.90;1.00;;;;;;5093450;28;20462;-82
2022/07/09 04:23:22;;;;;;;5.32;3.80;;;15.90;1.00;;;;;;5091494;28;20055;-82
2022/07/09 04:25:50;;;;;;;6.45;3.65;;;15.80;1.00;;;;;;5093237;28;20059;-81
2022/07/09 04:28:17;;;;;;;5.00;3.80;;;15.80;1.00;;;;;;5093057;28;20071;-82
2022/07/09 04:30:43;;;;;;;6.80;4.10;;;16.00;1.00;;;;;;5092857;28;20020;-82
2022/07/09 04:33:08;;;;;;;7.55;4.18;;;16.00;1.00;;;;;;5092493;28;20036;-81
2022/07/09 04:35:35;;;;;;;6.50;4.03;;;15.70;1.00;;;;;;5093868;28;20550;-83
2022/07/09 04:38:01;;;;;;;6.57;4.22;;;15.70;1.00;;;;;;5094303;28;20027;-82
2022/07/09 04:40:27;;;;;;;7.40;4.07;;;15.90;1.00;;;;;;5092857;28;20193;-81
2022/07/09 04:42:52;;;;;;;5.63;4.38;;;15.80;1.00;;;;;;5092733;28;20410;-82
2022/07/09 04:45:18;;;;;;;4.40;4.00;;;15.90;1.00;;;;;;5093196;28;20027;-81
2022/07/09 04:47:44;;;;;;;7.25;4.25;;;16.10;1.00;;;;;;5092507;28;20031;-82
2022/07/09 04:50:10;;;;;;;5.50;3.70;;;15.90;1.00;;;;;;5093176;28;20501;-82
2022/07/09 04:52:37;;;;;;;4.57;4.10;;;15.90;1.00;;;;;;5092246;28;20055;-82
2022/07/09 04:55:04;;;;;;;8.40;4.45;;;16.10;1.00;;;;;;5092612;28;20070;-81
2022/07/09 04:57:30;;;;;;;5.72;3.90;;;16.00;1.00;;;;;;5092281;28;20569;-81
2022/07/09 05:00:02;;;;;;;5.38;3.83;;;16.00;1.00;;;;;;5092512;28;20115;-82
2022/07/09 05:02:28;;;;;;;6.25;4.53;;;15.90;1.00;;;;;;5093964;28;20074;-81
2022/07/09 05:04:53;;;;;;;4.80;3.88;;;15.70;1.00;;;;;;5093072;28;20693;-81
2022/07/09 05:07:19;;;;;;;8.38;4.20;;;16.00;1.00;;;;;;5092305;28;20030;-81
2022/07/09 05:09:45;;;;;;;4.75;4.03;;;16.10;1.00;;;;;;5092222;28;20036;-82
2022/07/09 05:12:11;;;;;;;5.75;4.45;;;15.90;1.00;;;;;;5092210;28;20499;-82
2022/07/09 05:14:37;;;;;;;5.60;4.13;;;16.10;1.00;;;;;;5092687;28;20151;-82
2022/07/09 05:17:03;;;;;;;5.45;4.03;;;16.10;1.00;;;;;;5093698;28;20028;-81
2022/07/09 05:19:29;;;;;;;7.03;4.30;;;16.20;1.00;;;;;;5092020;28;20088;-81
2022/07/09 05:21:55;;;;;;;8.23;4.60;;;16.10;1.00;;;;;;5091844;28;20442;-82
2022/07/09 05:24:20;;;;;;;5.50;4.28;;;16.20;1.00;;;;;;5092188;28;20557;-82
2022/07/09 05:26:46;;;;;;;4.63;4.10;;;16.30;1.00;;;;;;5091891;28;20031;-82
2022/07/09 05:29:12;;;;;;;7.63;4.25;;;16.40;1.00;;;;;;5092793;28;20409;-82
2022/07/09 05:31:38;;;;;;;8.35;4.10;;;16.30;1.00;;;;;;5091448;28;20122;-82
2022/07/09 05:34:05;;;;;;;4.45;4.03;;;16.50;1.00;;;;;;5091803;28;20036;-82
2022/07/09 05:36:31;;;;;;;7.10;4.07;;;16.40;1.00;;;;;;5091712;28;20056;-81
2022/07/09 05:38:58;;;;;;;5.80;3.90;;;16.40;1.00;;;;;;5092372;28;20036;-82
2022/07/09 05:41:24;;;;;;;8.10;4.28;;;16.60;1.00;;;;;;5093690;28;20546;-81
2022/07/09 05:43:51;;;;;;;5.13;4.10;;;16.70;1.00;;;;;;5090280;28;20024;-81
2022/07/09 05:46:17;;;;;;;6.18;4.50;;;16.70;1.00;;;;;;5091124;28;20028;-81
2022/07/09 05:48:42;;;;;;;4.70;4.05;;;16.70;1.00;;;;;;5091531;28;20028;-81
2022/07/09 05:51:08;;;;;;;6.30;4.05;;;16.90;1.00;;;;;;5091561;28;20400;-81
2022/07/09 05:53:34;;;;;;;7.45;4.50;;;17.00;1.00;;;;;;5092112;28;20339;-81
2022/07/09 05:56:00;;;;;;;6.47;4.40;;;17.10;1.00;;;;;;5093120;28;20036;-81
2022/07/09 05:58:26;;;;;;;6.05;4.55;;;17.10;1.00;;;;;;5091114;28;20052;-81
2022/07/09 06:00:51;;;;;;;6.78;4.45;;;17.10;1.00;;;;;;5089685;28;20028;-81
2022/07/09 06:03:17;;;;;;;6.90;4.10;;;17.20;1.00;;;;;;5090437;28;20110;-81
2022/07/09 06:05:43;;;;;;;7.05;4.40;;;17.20;1.00;;;;;;5091489;28;20024;-82
2022/07/09 06:08:09;;;;;;;7.13;4.07;;;17.40;1.00;;;;;;5091868;28;20069;-81
2022/07/09 06:10:35;;;;;;;4.95;3.90;;;17.40;1.00;;;;;;5091094;28;20032;-81
2022/07/09 06:13:01;;;;;;;5.55;4.00;;;17.50;1.00;;;;;;5090943;28;20115;-79
2022/07/09 06:15:27;;;;;;;5.53;3.83;;;17.60;1.00;;;;;;5090824;28;20123;-79
2022/07/09 06:17:52;;;;;;;7.25;3.85;;;17.60;1.00;;;;;;5091327;28;20062;-79
2022/07/09 06:20:18;;;;;;;5.47;3.60;;;17.70;1.00;;;;;;5092653;28;20036;-79
2022/07/09 06:22:44;;;;;;;7.32;4.00;;;17.70;1.00;;;;;;5090159;28;20484;-79
2022/07/09 06:25:10;;;;;;;5.45;3.75;;;17.80;1.00;;;;;;5090269;28;20106;-82
2022/07/09 06:27:36;;;;;;;5.13;4.05;;;17.80;1.00;;;;;;5089965;28;20128;-82
2022/07/09 06:30:02;;;;;;;6.00;3.95;;;17.80;1.00;;;;;;5090442;28;20051;-82
2022/07/09 06:32:28;;;;;;;5.88;3.72;;;17.80;1.00;;;;;;5092507;28;20008;-82
2022/07/09 06:34:53;;;;;;;6.13;4.07;;;17.90;1.00;;;;;;5089816;28;20040;-82
2022/07/09 06:37:19;;;;;;;8.50;3.95;;;18.00;1.00;;;;;;5089109;28;20036;-82
2022/07/09 06:39:45;;;;;;;6.22;4.15;;;18.10;1.00;;;;;;5090360;28;20108;-82
2022/07/09 06:42:11;;;;;;;5.03;3.60;;;18.20;1.00;;;;;;5090485;28;20377;-82
2022/07/09 06:44:37;;;;;;;5.63;4.10;;;18.20;1.00;;;;;;5091597;28;20383;-82
2022/07/09 06:47:03;;;;;;;5.15;3.63;;;18.40;1.00;;;;;;5089908;28;20024;-82
2022/07/09 06:49:29;;;;;;;5.40;3.70;;;18.40;1.00;;;;;;5090281;28;20036;-82
2022/07/09 06:51:55;;;;;;;6.28;3.42;;;18.10;1.00;;;;;;5090769;28;20057;-82
2022/07/09 06:54:21;;;;;;;7.25;3.65;;;18.20;1.00;;;;;;5090302;28;20075;-82
2022/07/09 06:56:46;;;;;;;6.20;3.30;;;18.30;1.00;;;;;;5090380;28;20036;-82
2022/07/09 06:59:12;;;;;;;6.03;3.53;;;18.40;1.00;;;;;;5092483;28;20051;-82
2022/07/09 07:01:39;;;;;;;5.70;3.50;;;18.50;1.00;;;;;;5090250;28;20636;-82
2022/07/09 07:04:05;;;;;;;5.28;3.85;;;18.70;1.00;;;;;;5089997;28;20399;-82
2022/07/09 07:06:30;;;;;;;4.88;3.35;;;18.60;1.00;;;;;;5090594;28;20120;-82
2022/07/09 07:08:56;;;;;;;6.25;3.67;;;18.50;1.00;;;;;;5090205;28;20111;-82
2022/07/09 07:11:22;;;;;;;5.47;3.72;;;18.50;1.00;;;;;;5091999;28;20028;-82
2022/07/09 07:13:47;;;;;;;7.57;3.63;;;18.80;1.00;;;;;;5089878;28;20075;-82
2022/07/09 07:16:13;;;;;;;5.15;3.40;;;18.70;1.00;;;;;;5089998;28;20039;-82
2022/07/09 07:18:38;;;;;;;6.97;3.95;;;18.80;1.00;;;;;;5089891;28;20523;-82
2022/07/09 07:21:04;;;;;;;4.20;3.45;;;18.90;1.00;;;;;;5090558;28;20389;-82
2022/07/09 07:23:32;;;;;;;4.78;3.42;;;19.00;1.00;;;;;;5091313;28;20028;-82
2022/07/09 07:25:59;;;;;;;5.05;3.40;;;19.20;1.00;;;;;;5090887;28;20073;-82
2022/07/09 07:28:25;;;;;;;4.13;3.38;;;19.20;1.00;;;;;;5089396;28;20055;-82
2022/07/09 07:30:50;;;;;;;7.55;3.35;;;19.40;1.00;;;;;;5090241;28;20024;-82
2022/07/09 07:33:16;;;;;;;6.45;3.42;;;19.50;1.00;;;;;;5088537;28;20036;-82
2022/07/09 07:35:43;;;;;;;8.73;3.65;;;19.60;1.00;;;;;;5089855;28;20038;-82
2022/07/09 07:38:09;;;;;;;7.40;3.47;;;19.60;1.00;;;;;;5091862;28;20028;-79
2022/07/09 07:40:36;;;;;;;4.50;3.42;;;19.70;1.00;;;;;;5089688;28;20040;-80
2022/07/09 07:43:02;;;;;;;4.88;3.50;;;20.00;1.00;;;;;;5089874;28;20054;-79
2022/07/09 07:45:28;;;;;;;6.72;3.92;;;19.90;1.00;;;;;;5089845;28;20309;-80
2022/07/09 07:47:54;;;;;;;5.65;3.58;;;20.10;1.00;;;;;;5073780;28;20024;-79
2022/07/09 07:50:21;;;;;;;5.80;3.25;;;20.30;1.00;;;;;;5092149;28;20050;-82
2022/07/09 07:52:47;;;;;;;7.57;3.30;;;20.20;1.00;;;;;;5089952;28;20024;-82
2022/07/09 07:55:12;;;;;;;6.93;3.83;;;20.20;1.00;;;;;;5089618;28;20028;-82
2022/07/09 07:57:38;;;;;;;7.65;3.25;;;20.00;1.00;;;;;;5089152;28;20488;-82
2022/07/09 08:00:05;;;;;;;7.60;3.72;;;20.00;1.00;;;;;;5090092;28;20028;-82
2022/07/09 08:02:31;;;;;;;7.68;3.42;;;20.10;1.00;;;;;;5090806;28;20083;-82
2022/07/09 08:04:57;;;;;;;5.57;3.45;;;20.20;1.00;;;;;;5089048;28;20100;-82
2022/07/09 08:07:22;;;;;;;6.15;3.58;;;20.20;1.00;;;;;;5089215;28;20036;-82
2022/07/09 08:09:48;;;;;;;7.50;3.63;;;20.20;1.00;;;;;;5088942;28;20036;-81
2022/07/09 08:12:14;;;;;;;7.45;3.63;;;20.30;1.00;;;;;;5090063;28;20024;-82
2022/07/09 08:14:39;;;;;;;5.50;3.17;;;20.30;1.00;;;;;;5089865;28;20115;-82
2022/07/09 08:17:05;;;;;;;4.68;3.05;;;20.50;1.00;;;;;;5091375;28;20152;-82
2022/07/09 08:19:31;;;;;;;4.30;3.42;;;20.60;1.00;;;;;;5089397;28;20088;-82
2022/07/09 08:21:57;;;;;;;6.90;3.60;;;20.70;1.00;;;;;;5088619;28;20024;-82
2022/07/09 08:24:22;;;;;;;5.60;3.28;;;20.50;1.00;;;;;;5088768;28;20040;-82
2022/07/09 08:26:48;;;;;;;5.40;2.83;;;20.60;1.00;;;;;;5090566;28;20032;-82
2022/07/09 08:29:14;;;;;;;7.20;3.35;;;20.50;1.00;;;;;;5095123;28;20051;-82
2022/07/09 08:31:39;;;;;;;4.85;3.08;;;20.70;1.00;;;;;;5092982;28;20028;-82
2022/07/09 08:34:05;;;;;;;5.18;3.72;;;20.70;1.00;;;;;;5093240;28;20036;-82
2022/07/09 08:36:31;;;;;;;5.20;3.05;;;20.90;1.00;;;;;;5093405;28;20081;-82
2022/07/09 08:38:56;;;;;;;3.72;3.30;;;21.00;1.00;;;;;;5092569;28;20107;-82
2022/07/09 08:41:23;;;;;;;5.05;3.20;;;21.10;1.00;;;;;;5095273;28;20024;-80
2022/07/09 08:43:51;;;;;;;5.65;3.33;;;21.00;1.00;;;;;;5091044;28;20032;-79
2022/07/09 08:46:17;;;;;;;6.43;3.00;;;21.10;1.00;;;;;;5092560;28;20434;-80
2022/07/09 08:48:45;;;;;;;4.53;3.53;;;21.30;1.00;;;;;;5091548;28;20028;-80
2022/07/09 08:51:11;;;;;;;4.60;3.10;;;21.30;1.00;;;;;;5093139;28;20016;-80
2022/07/09 08:53:41;;;;;;;4.85;3.33;;;21.20;1.00;;;;;;5092305;28;20036;-80
2022/07/09 08:56:07;;;;;;;4.68;3.28;;;21.40;1.00;;;;;;5092676;28;20488;-80
2022/07/09 08:58:33;;;;;;;5.05;3.17;;;21.40;1.00;;;;;;5093310;28;20043;-80
2022/07/09 09:01:00;;;;;;;4.55;2.92;;;21.60;1.00;;;;;;5092420;28;20433;-80
2022/07/09 09:03:26;;;;;;;4.10;3.20;;;21.70;1.00;;;;;;5092432;28;20032;-79
2022/07/09 09:06:06;;;;;;;5.13;3.40;;;21.70;1.00;;;;;;5092304;28;20028;-80
2022/07/09 09:08:36;;;;;;;4.18;3.00;;;21.70;1.00;;;;;;5090271;28;20020;-80
2022/07/09 09:11:06;;;;;;;3.97;3.03;;;21.80;1.00;;;;;;5093341;28;20027;-79
2022/07/09 09:13:46;;;;;;;6.28;3.50;;;21.60;1.00;;;;;;5091768;28;20027;-80
2022/07/09 09:16:13;;;;;;;5.13;3.30;;;21.60;1.00;;;;;;5091850;28;20108;-80
2022/07/09 09:18:42;;;;;;;5.40;3.10;;;21.60;1.00;;;;;;5091887;28;20495;-80
2022/07/09 09:21:10;;;;;;;4.30;3.28;;;21.80;1.00;;;;;;5089499;28;20119;-80
2022/07/09 09:23:47;;;;;;;7.78;2.85;;;21.80;1.00;;;;;;5092602;28;20021;-80
2022/07/09 09:26:14;;;;;;;3.90;3.03;;;21.90;1.00;;;;;;5092728;28;20027;-80
2022/07/09 09:28:46;;;;;;;7.03;2.80;;;22.00;1.00;;;;;;5091720;28;20093;-80
2022/07/09 09:31:23;;;;;;;5.07;3.03;;;21.90;1.00;;;;;;5091691;28;20032;-80
2022/07/09 09:33:50;;;;;;;4.93;3.20;;;22.00;1.00;;;;;;5091806;28;20036;-80
2022/07/09 09:36:33;;;;;;;5.88;3.25;;;22.10;1.00;;;;;;5091672;28;20024;-80
2022/07/09 09:39:13;;;;;;;6.40;3.15;;;22.10;1.00;;;;;;5076124;28;20079;-80
2022/07/09 09:41:40;;;;;;;4.78;2.92;;;22.40;1.00;;;;;;5092259;28;20016;-80
2022/07/09 09:44:10;;;;;;;5.18;2.80;;;22.30;1.00;;;;;;5091218;28;20036;-81
2022/07/09 09:46:39;;;;;;;6.03;2.78;;;22.60;1.00;;;;;;5091629;28;20032;-80
2022/07/09 09:49:10;;;;;;;3.55;2.90;;;22.50;1.00;;;;;;5091393;28;20035;-80
2022/07/09 09:51:47;;;;;;;6.30;3.10;;;22.40;1.00;;;;;;5091178;28;20031;-80
2022/07/09 09:54:14;;;;;;;3.78;3.00;;;22.40;1.00;;;;;;5091702;28;20088;-80
2022/07/09 09:56:40;;;;;;;4.95;3.03;;;22.50;1.00;;;;;;5091477;28;20047;-79
2022/07/09 09:59:06;;;;;;;6.25;3.05;;;22.40;1.00;;;;;;5089250;28;20500;-79
2022/07/09 10:01:32;;;;;;;4.82;2.78;;;22.50;1.00;;;;;;5090082;28;20020;-80
2022/07/09 10:03:59;;;;;;;4.15;3.05;;;22.60;1.00;;;;;;5090988;28;20048;-80
2022/07/09 10:06:26;;;;;;;4.68;3.00;;;22.70;1.00;;;;;;5090766;28;20032;-80
2022/07/09 10:08:52;;;;;;;4.15;2.67;;;22.90;1.00;;;;;;5091127;28;20027;-80
2022/07/09 10:11:18;;;;;;;5.32;2.80;;;23.20;1.00;;;;;;5093604;28;20063;-82
2022/07/09 10:13:54;;;;;;;3.45;2.70;;;23.50;1.00;;;;;;5090922;28;20063;-80
2022/07/09 10:16:38;;;;;;;3.00;2.70;;;23.50;1.00;;;;;;5090557;28;20118;-80
2022/07/09 10:19:04;;;;;;;6.03;3.00;;;23.60;1.00;;;;;;5090547;28;20031;-82
2022/07/09 10:21:40;;;;;;;8.63;6.35;;;23.50;1.00;;;;;;5090532;28;20031;-82
2022/07/09 10:24:08;;;;;;;6.35;4.13;;;23.40;1.00;;;;;;5090817;28;20047;-82
2022/07/09 10:26:42;;;;;;;3.15;2.58;;;23.50;1.00;;;;;;5091463;28;20024;-82
2022/07/09 10:29:26;;;;;;;4.22;2.83;;;23.80;1.00;;;;;;5091107;28;20491;-82
2022/07/09 10:31:56;;;;;;;7.57;3.10;;;23.90;1.00;;;;;;5091192;28;20289;-82
2022/07/09 10:34:34;;;;;;;6.18;3.28;;;23.80;1.00;;;;;;5090268;28;20047;-82
2022/07/09 10:37:02;;;;;;;9.15;4.80;;;23.90;1.00;;;;;;5091156;28;20032;-82
2022/07/09 10:39:29;;;;;;;4.53;3.20;;;23.80;1.00;;;;;;5089249;28;20055;-81
2022/07/09 10:42:17;;;;;;;6.07;3.08;;;23.90;1.00;;;;;;5090794;28;20381;-81
2022/07/09 10:44:45;;;;;;;3.70;2.60;;;24.10;1.00;;;;;;5088683;28;20070;-81
2022/07/09 10:47:10;;;;;;;4.90;2.75;;;24.10;1.00;;;;;;5092678;28;20031;-83
2022/07/09 10:49:37;;;;;;;4.28;2.95;;;24.10;1.00;;;;;;5089417;28;20047;-82
2022/07/09 10:52:04;;;;;;;3.22;2.53;;;24.00;1.00;;;;;;5090280;28;20024;-82
2022/07/09 10:54:30;;;;;;;4.30;2.65;;;24.20;1.00;;;;;;5090174;28;20039;-81
2022/07/09 10:56:57;;;;;;;3.47;2.67;;;24.40;1.00;;;;;;5089148;28;20107;-81
2022/07/09 10:59:23;;;;;;;3.42;2.50;;;24.40;1.00;;;;;;5091941;28;20036;-82
2022/07/09 11:01:52;;;;;;;3.45;2.83;;;24.40;1.00;;;;;;5090650;28;20105;-82
2022/07/09 11:04:28;;;;;;;5.63;2.65;;;24.50;1.00;;;;;;5089411;28;20027;-80
2022/07/09 11:06:54;;;;;;;4.22;2.70;;;24.50;1.00;;;;;;5090040;28;20028;-80
2022/07/09 11:09:19;;;;;;;5.90;2.90;;;24.30;1.00;;;;;;5088926;28;20380;-80
2022/07/09 11:11:47;;;;;;;3.97;2.63;;;24.40;1.00;;;;;;5090165;28;20027;-82
2022/07/09 11:14:13;;;;;;;3.08;2.70;;;24.70;1.00;;;;;;5096668;28;20084;-82
2022/07/09 11:16:39;;;;;;;3.70;2.42;;;25.00;1.00;;;;;;5089828;28;20476;-82
2022/07/09 11:19:19;;;;;;;5.43;3.03;;;25.10;1.00;;;;;;5089870;28;20030;-82
2022/07/09 11:21:44;;;;;;;5.25;2.55;;;25.40;1.00;;;;;;5086245;28;20028;-81
2022/07/09 11:24:22;;;;;;;3.72;2.55;;;25.50;1.00;;;;;;5089685;28;20069;-81
2022/07/09 11:26:47;;;;;;;3.85;2.60;;;25.60;1.00;;;;;;5089913;28;20496;-82
2022/07/09 11:29:14;;;;;;;5.00;3.13;;;25.70;1.00;;;;;;5091630;28;20116;-81
2022/07/09 11:31:48;;;;;;;3.90;2.60;;;26.00;1.00;;;;;;5089569;28;20028;-81
2022/07/09 11:34:15;;;;;;;4.53;2.72;;;26.30;1.00;;;;;;5089777;28;20028;-84
2022/07/09 11:36:47;;;;;;;4.07;2.90;;;26.40;1.00;;;;;;5089679;28;20027;-82
2022/07/09 11:39:33;;;;;;;2.45;2.25;;;26.80;1.00;;;;;;5090264;28;20020;-82
2022/07/09 11:42:01;;;;;;;4.50;2.45;;;27.10;1.00;;;;;;5074267;28;20111;-83
2022/07/09 11:44:28;;;;;;;4.75;2.45;;;27.30;1.00;;;;;;5092027;28;20035;-83
2022/07/09 11:47:10;;;;;;;3.42;2.40;;;27.50;1.00;;;;;;5090077;28;20512;-84
2022/07/09 11:49:40;;;;;;;5.53;2.35;;;27.60;1.00;;;;;;5089347;28;20077;-81
2022/07/09 11:52:21;;;;;;;5.00;2.40;;;27.70;1.00;;;;;;5089480;28;20020;-83
2022/07/09 11:54:59;;;;;;;3.28;2.67;;;27.80;1.00;;;;;;5089518;28;20032;-84
2022/07/09 11:57:25;;;;;;;5.45;3.03;;;27.70;1.00;;;;;;5088335;28;20024;-84
2022/07/09 11:59:51;;;;;;;2.70;2.50;;;27.70;1.00;;;;;;5089614;28;20492;-82
2022/07/09 12:02:39;;;;;;;10.52;3.13;;;27.80;1.00;;;;;;5094254;28;20055;-81
2022/07/09 12:05:07;;;;;;;2.72;2.50;;;28.10;1.00;;;;;;5095497;28;20097;-82
2022/07/09 12:07:34;;;;;;;3.90;2.38;;;28.50;1.00;;;;;;5093492;28;20110;-82
2022/07/09 12:10:04;;;;;;;3.45;2.60;;;30.40;1.00;;;;;;5093357;28;20028;-82
2022/07/09 12:12:31;;;;;;;3.55;2.70;;;32.40;1.00;;;;;;5093344;28;20032;-82
2022/07/09 12:14:57;;;;;;;2.67;2.28;;;31.10;1.00;;;;;;5093887;28;20520;-82
2022/07/09 12:17:27;;;;;;;2.25;2.05;;;31.50;1.00;;;;;;5095147;28;20111;-82
2022/07/09 12:19:54;;;;;;;4.88;2.70;;;32.80;1.00;;;;;;5093775;28;20032;-82
2022/07/09 12:22:20;;;;;;;3.30;2.45;;;32.80;1.00;;;;;;5093287;28;20024;-82
2022/07/09 12:24:46;;;;;;;4.45;2.30;;;33.90;1.00;;;;;;5092757;28;20036;-82
2022/07/09 12:27:12;;;;;;;2.85;2.30;;;33.20;1.00;;;;;;5094309;28;20024;-82
2022/07/09 12:29:38;;;;;;;3.10;2.33;;;33.00;1.00;;;;;;5093357;28;20044;-82
2022/07/09 12:32:04;;;;;;;3.78;2.47;;;32.80;1.00;;;;;;5094496;28;20043;-82
2022/07/09 12:34:31;;;;;;;4.07;2.28;;;32.40;1.00;;;;;;5095540;28;20448;-82
2022/07/09 12:36:57;;;;;;;3.40;2.40;;;31.90;1.00;;;;;;5092869;28;20076;-81
2022/07/09 12:39:22;;;;;;;5.13;2.45;;;31.50;1.00;;;;;;5093013;28;20122;-82
2022/07/09 12:41:48;;;;;;;3.70;2.30;;;31.20;1.00;;;;;;5093128;28;20032;-82
2022/07/09 12:44:14;;;;;;;3.50;2.47;;;31.20;1.00;;;;;;5094834;28;20043;-82
2022/07/09 12:46:40;;;;;;;3.90;2.22;;;31.00;1.00;;;;;;5092654;28;20035;-81
2022/07/09 12:49:06;;;;;;;3.00;2.60;;;30.90;1.00;;;;;;5091955;28;20403;-81
2022/07/09 12:51:31;;;;;;;3.83;2.40;;;30.60;1.00;;;;;;5090870;28;20032;-82
2022/07/09 12:53:57;;;;;;;2.30;2.08;;;30.70;1.00;;;;;;5093139;28;20067;-82
2022/07/09 12:56:23;;;;;;;3.67;2.70;;;30.50;1.00;;;;;;5092756;28;20590;-82